Portada
METAR-TAF:

METAR-TAF

Aeropuertos :

Le Luc, Francia

latitud: 43-23N, longitud: 006-23E, altitud: 80 m

Observación

El informe se hizo hace 16 minutos, a las 12:00 UTC
Viento 9 kt del oeste-noroeste, variando entre oeste y noroeste
Temperatura 8°C
Humedad 76%
Presión 1013 hPa
Visibilidad 10 km o más
lluvia ligera

METAR: LFMC 271200Z AUTO 29009KT 260V320 9999 -RA ////// 08/04 Q1013

Hora: 13:16 (12:16 UTC)


TAF: falta

Observaciones y pronósticos meteorológicos de más de 4000 aeropuertos (mensajes METAR y TAF).

Los puntos amarillos y rojos representan las estaciones disponibles.

Ponga el ratón en el punto deseado para ver el nombre de la estación.

Haga clic para ver las observaciones y los pronósticos meteorológicos.

Para cambiar el mapa : haga clic en los botones verdes con una cruz de color negro para hacer un zoom, en el botón verde con un guión para alejar o en las flechas verdes para mapas adyacentes.


METAR-TAF: